Time;durP1;ratioP1;P1;durP2;ratioP2;P2;SDS_P1;SDS_P2;PMS_P1;PMS_P2;Temp;Humidity;BMP_temperature;BMP_pressure;BME280_temperature;BME280_humidity;BME280_pressure;Samples;Min_cycle;Max_cycle;Signal;HPM_P1;HPM_P2
2021/11/16 00:00:12;;;;;;;81.68;30.83;;;;;;;5.02;94.47;102781.84;5006820;28;20434;-69
2021/11/16 00:02:39;;;;;;;81.43;31.60;;;;;;;5.06;94.76;102782.78;5005262;28;20033;-68
2021/11/16 00:05:05;;;;;;;83.10;33.15;;;;;;;5.04;95.06;102777.56;5005784;28;20080;-69
2021/11/16 00:07:31;;;;;;;72.15;32.13;;;;;;;5.04;95.29;102774.09;4989121;28;20026;-69
2021/11/16 00:09:57;;;;;;;74.35;32.00;;;;;;;4.91;94.89;102768.63;5006902;28;20378;-69
2021/11/16 00:12:22;;;;;;;80.00;32.47;;;;;;;4.88;94.78;102771.16;5006277;28;20022;-69
2021/11/16 00:14:48;;;;;;;83.78;35.90;;;;;;;4.81;94.74;102764.06;5006870;28;20482;-68
2021/11/16 00:17:13;;;;;;;91.88;34.00;;;;;;;4.72;94.89;102767.34;5006282;28;20474;-68
2021/11/16 00:19:39;;;;;;;84.85;33.67;;;;;;;4.74;95.27;102762.16;5006753;28;20022;-68
2021/11/16 00:22:07;;;;;;;79.88;32.75;;;;;;;4.75;95.64;102753.53;5005891;28;20105;-69
2021/11/16 00:24:38;;;;;;;67.72;31.27;;;;;;;4.78;94.64;102758.81;5010217;28;20057;-68
2021/11/16 00:27:05;;;;;;;82.38;33.65;;;;;;;4.76;94.76;102756.16;5009236;28;20030;-69
2021/11/16 00:29:31;;;;;;;75.97;32.33;;;;;;;4.72;95.13;102754.34;5009673;28;20030;-69
2021/11/16 00:31:56;;;;;;;73.78;31.25;;;;;;;4.67;94.87;102749.03;5010603;28;20155;-69
2021/11/16 00:34:22;;;;;;;74.70;31.77;;;;;;;4.73;94.97;102753.50;5010700;28;20058;-69
2021/11/16 00:36:47;;;;;;;73.15;34.28;;;;;;;4.67;94.58;102738.63;5010710;28;20496;-69
2021/11/16 00:39:12;;;;;;;77.18;31.60;;;;;;;4.71;94.81;102746.50;5009128;28;20034;-69
2021/11/16 00:41:38;;;;;;;74.40;31.73;;;;;;;4.75;95.01;102744.03;5009679;28;20066;-66
2021/11/16 00:44:04;;;;;;;75.05;32.40;;;;;;;4.68;93.89;102744.72;5009145;28;20036;-66
2021/11/16 00:46:29;;;;;;;68.88;30.20;;;;;;;4.74;93.31;102736.16;5009799;28;20470;-67
2021/11/16 00:48:55;;;;;;;70.97;31.77;;;;;;;4.69;93.07;102736.94;5009088;28;20045;-67
2021/11/16 00:51:20;;;;;;;70.32;29.65;;;;;;;4.77;92.90;102736.25;5009465;28;20053;-67
2021/11/16 00:53:45;;;;;;;68.38;29.60;;;;;;;4.64;92.58;102738.56;5009413;28;20033;-67
2021/11/16 00:56:11;;;;;;;71.18;31.35;;;;;;;4.61;92.87;102732.44;5009267;28;20104;-69
2021/11/16 00:58:37;;;;;;;72.55;30.50;;;;;;;4.62;93.06;102740.25;5008325;28;20052;-67
2021/11/16 01:01:03;;;;;;;71.45;30.50;;;;;;;4.67;93.54;102750.75;5007510;28;20096;-67
2021/11/16 01:03:29;;;;;;;69.63;30.95;;;;;;;4.65;93.57;102753.34;5009071;28;20026;-67
2021/11/16 01:05:55;;;;;;;67.55;29.88;;;;;;;4.64;93.76;102753.28;5008782;28;20026;-68
2021/11/16 01:08:21;;;;;;;66.45;29.60;;;;;;;4.62;93.73;102758.44;5008963;28;20394;-68
2021/11/16 01:10:47;;;;;;;67.00;29.25;;;;;;;4.67;93.84;102758.56;5008420;28;20076;-68
2021/11/16 01:13:14;;;;;;;67.50;30.17;;;;;;;4.67;93.82;102751.63;5008759;28;20471;-68
2021/11/16 01:15:41;;;;;;;75.50;31.40;;;;;;;4.65;94.12;102755.94;5008336;28;20053;-68
2021/11/16 01:18:07;;;;;;;63.50;29.73;;;;;;;4.66;94.27;102755.09;5007544;28;20064;-67
2021/11/16 01:20:33;;;;;;;75.63;33.40;;;;;;;4.64;93.41;102756.78;5008556;28;20021;-67
2021/11/16 01:22:59;;;;;;;72.38;31.58;;;;;;;4.65;93.96;102752.44;5008239;28;20065;-68
2021/11/16 01:25:26;;;;;;;68.90;32.55;;;;;;;4.62;94.34;102748.06;5007274;28;20418;-68
2021/11/16 01:27:54;;;;;;;75.97;32.40;;;;;;;4.57;94.39;102747.06;5006967;28;20029;-69
2021/11/16 01:30:20;;;;;;;76.72;30.92;;;;;;;4.49;95.19;102746.91;5008456;28;20029;-68
2021/11/16 01:32:50;;;;;;;82.65;33.33;;;;;;;4.42;95.70;102745.00;5007582;28;20033;-69
2021/11/16 01:35:16;;;;;;;80.75;31.75;;;;;;;4.47;96.37;102738.19;5007506;28;20092;-69
2021/11/16 01:37:41;;;;;;;71.53;31.83;;;;;;;4.51;96.73;102740.03;5007902;28;20026;-69
2021/11/16 01:40:14;;;;;;;72.85;32.00;;;;;;;4.44;96.51;102737.25;5008406;28;20430;-69
2021/11/16 01:42:39;;;;;;;79.68;32.67;;;;;;;4.48;96.38;102736.50;5007739;28;20069;-68
2021/11/16 01:45:05;;;;;;;75.57;30.25;;;;;;;4.53;95.49;102727.06;5006905;28;20057;-68
2021/11/16 01:47:31;;;;;;;77.35;32.63;;;;;;;4.53;95.04;102734.88;5007741;28;20065;-67
2021/11/16 01:49:56;;;;;;;73.93;31.65;;;;;;;4.47;94.70;102730.38;5006593;28;20076;-67
2021/11/16 01:52:22;;;;;;;72.53;32.08;;;;;;;4.44;95.94;102729.44;5008013;28;20391;-68
2021/11/16 01:54:47;;;;;;;75.68;32.10;;;;;;;4.44;95.83;102724.25;5007895;28;20399;-68
2021/11/16 01:57:12;;;;;;;77.05;30.98;;;;;;;4.41;95.60;102726.78;5007835;28;20029;-70
2021/11/16 01:59:38;;;;;;;67.18;31.08;;;;;;;4.44;95.89;102726.84;5007594;28;20060;-66
2021/11/16 02:02:04;;;;;;;73.88;32.38;;;;;;;4.44;95.94;102724.25;5007636;28;20104;-68
2021/11/16 02:04:30;;;;;;;70.20;31.88;;;;;;;4.36;95.87;102719.75;5007550;28;20026;-67
2021/11/16 02:06:55;;;;;;;73.10;31.85;;;;;;;4.38;96.13;102718.91;5007789;28;20030;-68
2021/11/16 02:09:21;;;;;;;69.85;30.67;;;;;;;4.40;96.61;102712.91;5007434;28;20029;-68
2021/11/16 02:11:46;;;;;;;75.40;32.13;;;;;;;4.44;96.66;102716.44;5006412;28;20022;-68
2021/11/16 02:14:14;;;;;;;68.13;30.65;;;;;;;4.34;96.12;102705.84;5007492;28;20029;-68
2021/11/16 02:16:40;;;;;;;74.45;30.90;;;;;;;4.39;96.72;102705.97;5007686;28;20109;-68
2021/11/16 02:19:07;;;;;;;69.45;31.88;;;;;;;4.40;96.81;102699.03;5007832;28;20113;-68
2021/11/16 02:21:33;;;;;;;74.95;32.83;;;;;;;4.38;96.80;102696.41;5007351;28;20117;-68
2021/11/16 02:23:59;;;;;;;74.78;33.85;;;;;;;4.39;96.68;102694.69;5006473;28;20097;-68
2021/11/16 02:26:24;;;;;;;71.78;31.23;;;;;;;4.33;96.44;102692.84;5005881;28;20133;-67
2021/11/16 02:28:49;;;;;;;74.95;32.92;;;;;;;4.39;97.18;102699.88;5007603;28;20749;-68
2021/11/16 02:31:16;;;;;;;74.15;31.77;;;;;;;4.39;97.14;102695.56;5007062;28;20033;-68
2021/11/16 02:33:42;;;;;;;70.60;31.63;;;;;;;4.32;96.55;102684.16;5007240;28;20034;-67
2021/11/16 02:36:08;;;;;;;71.40;32.53;;;;;;;4.38;96.95;102685.13;5006832;28;20141;-68
2021/11/16 02:38:35;;;;;;;78.80;33.78;;;;;;;4.35;96.13;102686.84;5007233;28;20113;-67
2021/11/16 02:41:02;;;;;;;71.50;31.92;;;;;;;4.39;96.79;102679.09;5007116;28;20088;-68
2021/11/16 02:43:29;;;;;;;65.13;31.10;;;;;;;4.36;95.71;102680.78;5005480;28;20026;-68
2021/11/16 02:45:55;;;;;;;68.35;31.40;;;;;;;4.39;96.08;102682.59;5006815;28;20088;-67
2021/11/16 02:48:20;;;;;;;68.90;31.17;;;;;;;4.44;96.12;102683.56;5006328;28;20029;-67
2021/11/16 02:50:50;;;;;;;64.90;29.10;;;;;;;4.48;96.14;102681.91;5005614;28;20028;-69
2021/11/16 02:53:16;;;;;;;55.25;26.73;;;;;;;4.47;95.60;102686.22;5006709;28;20112;-69
2021/11/16 02:55:42;;;;;;;56.45;26.95;;;;;;;4.49;95.09;102694.03;5005743;28;20072;-69
2021/11/16 02:58:08;;;;;;;56.97;26.38;;;;;;;4.46;93.84;102688.78;5005092;28;20068;-68
2021/11/16 03:00:34;;;;;;;53.78;25.48;;;;;;;4.46;93.84;102694.84;5006703;28;20068;-68
2021/11/16 03:03:00;;;;;;;58.55;25.85;;;;;;;4.47;93.32;102688.81;5006351;28;20029;-69
2021/11/16 03:05:31;;;;;;;59.20;27.83;;;;;;;4.50;93.92;102695.78;5005649;28;20038;-68
2021/11/16 03:07:57;;;;;;;63.90;27.27;;;;;;;4.47;93.25;102688.81;5005608;28;20021;-68
2021/11/16 03:10:26;;;;;;;59.08;26.90;;;;;;;4.48;92.51;102684.50;5006428;28;20030;-69
2021/11/16 03:12:51;;;;;;;60.67;28.10;;;;;;;4.50;92.21;102688.00;5005296;28;20022;-68
2021/11/16 03:15:17;;;;;;;58.30;26.50;;;;;;;4.51;92.37;102685.47;5006290;28;20038;-68
2021/11/16 03:17:42;;;;;;;56.10;26.17;;;;;;;4.52;92.50;102683.72;5006490;28;20593;-67
2021/11/16 03:20:13;;;;;;;56.67;26.85;;;;;;;4.52;92.27;102678.53;5006280;28;20121;-68
2021/11/16 03:22:52;;;;;;;64.10;27.70;;;;;;;4.53;92.85;102685.47;5005248;28;20026;-69
2021/11/16 03:25:25;;;;;;;56.50;26.45;;;;;;;4.56;92.78;102682.06;5004814;28;20482;-67
2021/11/16 03:27:56;;;;;;;62.60;25.45;;;;;;;4.58;92.74;102689.06;5006787;28;20026;-68
2021/11/16 03:30:22;;;;;;;60.05;27.33;;;;;;;4.57;92.55;102689.03;5005186;28;20025;-69
2021/11/16 03:32:48;;;;;;;66.65;29.85;;;;;;;4.57;92.96;102682.09;5006465;28;20021;-67
2021/11/16 03:35:13;;;;;;;66.40;30.80;;;;;;;4.55;92.27;102686.38;5006822;28;20056;-70
2021/11/16 03:37:44;;;;;;;71.30;29.83;;;;;;;4.56;92.37;102685.53;5006148;28;20053;-68
2021/11/16 03:40:10;;;;;;;66.65;29.45;;;;;;;4.62;92.08;102683.06;5005590;28;20026;-67
2021/11/16 03:42:40;;;;;;;68.07;29.77;;;;;;;4.65;91.42;102685.75;5004886;28;20030;-67
2021/11/16 03:45:06;;;;;;;62.35;28.65;;;;;;;4.62;91.20;102696.06;5005476;28;20490;-68
2021/11/16 03:47:31;;;;;;;63.20;27.90;;;;;;;4.63;91.51;102700.44;5005859;28;20072;-67
2021/11/16 03:49:56;;;;;;;65.82;29.20;;;;;;;4.57;91.57;102697.69;5005026;28;20022;-68
2021/11/16 03:52:25;;;;;;;64.32;29.90;;;;;;;4.56;92.16;102688.13;5004609;28;20033;-68
2021/11/16 03:54:50;;;;;;;60.83;29.92;;;;;;;4.55;92.88;102690.72;5006326;28;20018;-68
2021/11/16 03:57:16;;;;;;;64.63;29.75;;;;;;;4.47;92.49;102695.75;5005875;28;20040;-68
2021/11/16 03:59:41;;;;;;;74.75;31.10;;;;;;;4.48;92.81;102700.09;5010156;28;20112;-68
2021/11/16 04:02:06;;;;;;;66.75;31.13;;;;;;;4.48;93.15;102700.97;5010059;28;20611;-67
2021/11/16 04:04:33;;;;;;;64.03;28.90;;;;;;;4.49;93.01;102699.22;5009704;28;20028;-68
2021/11/16 04:06:58;;;;;;;68.25;30.13;;;;;;;4.47;93.22;102701.81;5008801;28;20363;-69
2021/11/16 04:09:23;;;;;;;67.47;28.50;;;;;;;4.50;93.26;102704.50;5008474;28;20088;-67
2021/11/16 04:11:49;;;;;;;66.90;29.58;;;;;;;4.49;93.04;102702.72;5008673;28;20026;-68
2021/11/16 04:14:15;;;;;;;64.70;30.35;;;;;;;4.49;93.08;102705.31;5009552;28;20018;-68
2021/11/16 04:16:40;;;;;;;69.53;29.98;;;;;;;4.47;93.44;102701.81;5011095;28;20396;-68
2021/11/16 04:19:05;;;;;;;70.57;29.85;;;;;;;4.47;93.43;102706.13;5009538;28;20108;-68
2021/11/16 04:21:31;;;;;;;59.33;28.33;;;;;;;4.48;93.82;102707.91;5009425;28;20022;-68
2021/11/16 04:23:56;;;;;;;64.50;30.05;;;;;;;4.48;93.82;102700.97;5008277;28;20026;-67
2021/11/16 04:26:22;;;;;;;62.97;28.10;;;;;;;4.49;93.98;102699.22;4991886;28;20425;-68
2021/11/16 04:28:48;;;;;;;62.13;28.83;;;;;;;4.48;93.83;102702.69;5009622;28;20028;-68
2021/11/16 04:31:13;;;;;;;65.43;29.20;;;;;;;4.47;93.62;102701.81;5007832;28;20553;-67
2021/11/16 04:33:39;;;;;;;64.03;28.35;;;;;;;4.45;93.88;102693.13;5009541;28;20030;-68
2021/11/16 04:36:05;;;;;;;65.70;29.50;;;;;;;4.45;93.95;102700.03;5008997;28;20026;-67
2021/11/16 04:38:30;;;;;;;70.72;30.48;;;;;;;4.45;93.73;102698.31;5009563;28;20217;-68
2021/11/16 04:40:57;;;;;;;64.65;29.95;;;;;;;4.45;93.86;102692.22;5009083;28;20036;-67
2021/11/16 04:43:26;;;;;;;66.85;29.40;;;;;;;4.42;93.33;102699.97;5008322;28;20028;-68
2021/11/16 04:45:55;;;;;;;64.57;29.27;;;;;;;4.43;93.75;102700.00;5008833;28;20062;-68
2021/11/16 04:48:34;;;;;;;59.85;27.33;;;;;;;4.44;93.40;102696.56;5009342;28;20037;-67
2021/11/16 05:04:13;;;;;;;58.33;27.60;;;;;;;4.38;94.06;102682.53;5008317;28;20088;-69
2021/11/16 05:06:39;;;;;;;66.35;28.05;;;;;;;4.38;94.56;102672.13;5008021;28;20033;-67
2021/11/16 05:09:04;;;;;;;64.70;29.48;;;;;;;4.38;94.44;102679.94;5008797;28;20030;-68
2021/11/16 05:11:30;;;;;;;60.53;29.38;;;;;;;4.34;94.18;102679.88;5007844;28;20025;-68
2021/11/16 05:13:55;;;;;;;60.63;28.08;;;;;;;4.35;94.10;102673.84;5008521;28;20030;-67
2021/11/16 05:16:22;;;;;;;64.15;28.35;;;;;;;4.37;94.23;102666.06;5009108;28;20026;-67
2021/11/16 05:18:48;;;;;;;55.30;26.88;;;;;;;4.40;94.28;102673.06;5007558;28;20467;-67
2021/11/16 05:21:14;;;;;;;57.17;26.55;;;;;;;4.40;93.37;102673.06;5007624;28;20026;-67
2021/11/16 05:23:51;;;;;;;56.50;24.90;;;;;;;4.42;92.36;102672.25;5008269;28;20081;-67
2021/11/16 05:26:16;;;;;;;57.63;25.52;;;;;;;4.42;91.61;102671.38;5008720;28;20450;-67
2021/11/16 05:28:42;;;;;;;50.42;25.02;;;;;;;4.41;91.24;102669.63;5008341;28;20025;-67
2021/11/16 05:31:07;;;;;;;57.30;26.13;;;;;;;4.42;91.36;102671.38;5006920;28;20197;-68
2021/11/16 05:33:32;;;;;;;54.08;24.35;;;;;;;4.40;91.08;102667.88;5008456;28;20053;-67
2021/11/16 05:35:59;;;;;;;58.60;24.92;;;;;;;4.42;91.17;102666.19;5008000;28;20061;-68
2021/11/16 05:38:26;;;;;;;50.10;23.42;;;;;;;4.41;91.07;102670.50;5008093;28;20085;-67
2021/11/16 05:40:52;;;;;;;50.58;22.83;;;;;;;4.43;91.03;102673.13;5006650;28;20033;-68
2021/11/16 05:43:18;;;;;;;48.67;21.90;;;;;;;4.42;90.83;102672.25;5006844;28;20426;-67
2021/11/16 05:45:44;;;;;;;46.92;22.55;;;;;;;4.42;90.05;102677.44;5007802;28;20032;-68
2021/11/16 05:48:10;;;;;;;53.42;23.35;;;;;;;4.42;90.05;102672.25;5008177;28;20133;-68
2021/11/16 05:50:36;;;;;;;50.28;22.58;;;;;;;4.42;89.93;102672.25;5006444;28;20793;-68
2021/11/16 05:53:03;;;;;;;56.15;24.33;;;;;;;4.42;89.99;102661.84;5007977;28;20842;-70
2021/11/16 05:55:28;;;;;;;48.70;23.73;;;;;;;4.44;90.26;102664.47;5006808;28;20025;-67
2021/11/16 05:57:53;;;;;;;52.50;23.35;;;;;;;4.44;90.32;102673.16;5007336;28;20025;-68
2021/11/16 06:00:19;;;;;;;52.88;22.45;;;;;;;4.46;89.84;102668.00;5007973;28;20095;-69
2021/11/16 06:02:44;;;;;;;50.95;22.45;;;;;;;4.45;90.20;102671.44;5007082;28;20084;-69
2021/11/16 06:05:10;;;;;;;54.22;23.85;;;;;;;4.43;90.12;102668.81;5006294;28;20022;-68
2021/11/16 06:07:36;;;;;;;54.30;24.02;;;;;;;4.46;90.25;102662.81;5007271;28;20896;-68
2021/11/16 06:10:02;;;;;;;57.40;25.60;;;;;;;4.46;90.36;102668.00;5007840;28;20032;-67
2021/11/16 06:12:27;;;;;;;53.28;24.75;;;;;;;4.43;90.95;102666.22;5007592;28;20386;-69
2021/11/16 06:14:53;;;;;;;56.85;25.38;;;;;;;4.43;91.29;102661.03;5006466;28;20031;-68
2021/11/16 06:17:20;;;;;;;59.20;26.30;;;;;;;4.41;91.50;102660.09;5008329;28;20382;-70
2021/11/16 06:19:46;;;;;;;60.90;27.52;;;;;;;4.41;92.21;102654.03;5007539;28;20542;-70
2021/11/16 06:22:11;;;;;;;64.55;25.95;;;;;;;4.39;91.58;102658.31;5009315;28;20072;-71
2021/11/16 06:24:37;;;;;;;58.47;26.13;;;;;;;4.39;92.28;102658.31;5008669;28;20026;-69
2021/11/16 06:27:04;;;;;;;66.93;28.55;;;;;;;4.40;92.51;102657.47;5009050;28;20048;-69
2021/11/16 06:29:29;;;;;;;63.20;27.23;;;;;;;4.39;92.21;102655.72;5007896;28;20030;-70
2021/11/16 06:31:55;;;;;;;67.20;28.35;;;;;;;4.36;92.06;102649.59;5009138;28;20028;-70
2021/11/16 06:34:20;;;;;;;63.72;29.50;;;;;;;4.37;91.97;102650.50;5008610;28;20032;-71
2021/11/16 06:36:47;;;;;;;61.10;28.83;;;;;;;4.35;92.26;102649.56;5008596;28;20053;-70
2021/11/16 06:39:15;;;;;;;54.95;26.55;;;;;;;4.33;92.03;102652.13;5012565;28;20025;-70
2021/11/16 06:41:40;;;;;;;63.05;27.30;;;;;;;4.34;91.66;102655.59;5028240;28;20021;-70
2021/11/16 06:44:08;;;;;;;58.92;26.55;;;;;;;4.36;91.27;102656.53;5027238;28;20075;-70
2021/11/16 06:46:34;;;;;;;59.33;27.25;;;;;;;4.34;91.40;102658.19;5023442;28;20374;-70
2021/11/16 06:49:00;;;;;;;62.28;27.65;;;;;;;4.34;91.86;102647.81;5025354;28;20087;-70
2021/11/16 06:51:25;;;;;;;67.03;28.50;;;;;;;4.35;92.34;102653.06;5026488;28;20226;-69
2021/11/16 06:53:50;;;;;;;66.10;28.50;;;;;;;4.35;92.68;102645.25;5028753;28;20029;-69
2021/11/16 06:56:16;;;;;;;68.22;28.55;;;;;;;4.36;92.65;102647.00;5031805;28;20118;-69
2021/11/16 06:58:41;;;;;;;64.22;27.65;;;;;;;4.37;92.65;102647.88;5012128;28;20029;-70
2021/11/16 07:01:07;;;;;;;69.57;28.30;;;;;;;4.37;92.46;102642.69;5045666;28;20021;-70
2021/11/16 07:03:33;;;;;;;64.75;28.45;;;;;;;4.33;92.31;102641.75;5029752;28;20029;-69
2021/11/16 07:06:02;;;;;;;62.03;27.33;;;;;;;4.33;92.52;102644.34;5026141;28;20028;-69
2021/11/16 07:08:41;;;;;;;64.60;26.90;;;;;;;4.33;92.88;102649.53;5025389;28;20021;-70
2021/11/16 07:11:16;;;;;;;68.82;27.48;;;;;;;4.33;92.59;102653.88;5024517;28;20485;-68
2021/11/16 07:14:04;;;;;;;60.13;26.92;;;;;;;4.33;92.90;102651.28;5010273;28;20077;-68
2021/11/16 07:16:52;;;;;;;63.75;27.23;;;;;;;4.33;92.92;102652.13;5012372;28;20049;-68
2021/11/16 07:19:18;;;;;;;61.22;27.90;;;;;;;4.29;92.17;102647.72;5018566;28;20075;-68
2021/11/16 07:21:51;;;;;;;58.05;25.77;;;;;;;4.30;91.90;102646.00;5019742;28;20064;-70
2021/11/16 07:24:22;;;;;;;63.35;26.92;;;;;;;4.31;91.82;102648.63;5003592;28;20041;-69
2021/11/16 07:26:59;;;;;;;60.33;25.25;;;;;;;4.35;91.66;102645.25;5016178;28;20159;-69
2021/11/16 07:29:49;;;;;;;59.95;26.52;;;;;;;4.33;91.11;102649.53;5023941;28;20018;-68
2021/11/16 07:32:22;;;;;;;60.78;26.30;;;;;;;4.35;91.19;102657.38;5019095;28;20694;-68
2021/11/16 07:34:50;;;;;;;58.75;26.13;;;;;;;4.35;91.08;102663.44;5013993;28;20090;-68
2021/11/16 07:37:18;;;;;;;58.83;26.65;;;;;;;4.34;90.29;102656.50;5022872;28;20036;-68
2021/11/16 07:39:47;;;;;;;57.05;25.67;;;;;;;4.29;89.35;102650.31;5022038;28;20039;-68
2021/11/16 07:42:12;;;;;;;58.08;26.05;;;;;;;4.28;89.12;102647.66;5023918;28;20035;-68
2021/11/16 07:44:38;;;;;;;54.53;25.48;;;;;;;4.31;89.59;102646.03;5010512;28;20014;-71
2021/11/16 07:47:04;;;;;;;59.58;24.33;;;;;;;4.39;89.94;102650.50;5023516;28;20036;-68
2021/11/16 07:49:29;;;;;;;63.53;25.77;;;;;;;4.38;89.35;102653.94;5023935;28;20025;-69
2021/11/16 07:51:56;;;;;;;57.90;25.45;;;;;;;4.34;89.04;102651.31;5023077;28;20394;-68
2021/11/16 07:54:27;;;;;;;61.25;25.58;;;;;;;4.39;89.12;102659.22;5021437;28;20033;-68
2021/11/16 07:56:52;;;;;;;62.10;25.90;;;;;;;4.38;89.32;102654.84;5018055;28;20132;-69
2021/11/16 07:59:22;;;;;;;57.15;24.70;;;;;;;4.37;88.95;102653.09;5027377;28;20033;-68
2021/11/16 08:04:27;;;;;;;50.65;24.13;;;;;;;4.36;89.60;102651.31;5025022;28;20033;-69
2021/11/16 08:14:42;;;;;;;58.70;26.02;;;;;;;4.51;89.67;102650.78;5019384;28;20041;-70
2021/11/16 08:17:10;;;;;;;61.00;25.55;;;;;;;4.53;89.32;102641.31;5008221;28;20028;-69
2021/11/16 08:19:37;;;;;;;58.80;25.45;;;;;;;4.56;89.29;102645.69;5006329;28;20033;-69
2021/11/16 08:22:05;;;;;;;60.40;25.00;;;;;;;4.56;88.77;102646.56;5020573;28;20478;-69
2021/11/16 08:24:35;;;;;;;54.10;24.15;;;;;;;4.58;88.31;102647.47;5021843;28;20028;-69
2021/11/16 08:27:02;;;;;;;53.40;24.50;;;;;;;4.52;88.33;102634.34;5018653;28;20104;-70
2021/11/16 08:29:34;;;;;;;57.47;24.20;;;;;;;4.54;88.70;102635.28;5024812;28;20029;-70
2021/11/16 08:32:05;;;;;;;57.13;24.80;;;;;;;4.56;89.52;102637.91;5009616;28;20084;-69
2021/11/16 08:34:34;;;;;;;58.72;25.48;;;;;;;4.58;89.58;102642.28;5039322;28;20032;-69
2021/11/16 08:37:00;;;;;;;49.17;23.95;;;;;;;4.62;89.43;102638.88;5033181;28;20028;-69
2021/11/16 08:39:48;;;;;;;49.95;24.17;;;;;;;4.64;89.01;102636.31;5004117;28;20056;-70
2021/11/16 08:42:25;;;;;;;51.70;23.23;;;;;;;4.63;88.56;102639.78;5015281;28;20636;-69
2021/11/16 08:44:54;;;;;;;59.63;24.67;;;;;;;4.60;88.49;102635.41;5006872;28;20080;-70
2021/11/16 08:47:21;;;;;;;50.50;23.30;;;;;;;4.57;89.18;102630.13;5009691;28;20029;-70
2021/11/16 08:49:46;;;;;;;50.42;22.95;;;;;;;4.60;88.98;102634.50;5011789;28;20022;-69
2021/11/16 08:52:16;;;;;;;52.78;23.77;;;;;;;4.57;88.93;102631.84;5009246;28;20074;-70
2021/11/16 08:54:54;;;;;;;56.05;24.42;;;;;;;4.50;89.04;102630.84;5016005;28;20025;-69
2021/11/16 08:57:20;;;;;;;53.78;24.92;;;;;;;4.52;89.33;102631.75;5027116;28;20504;-70
2021/11/16 08:59:46;;;;;;;58.58;26.00;;;;;;;4.56;89.84;102627.50;5031969;28;20041;-69
2021/11/16 09:02:12;;;;;;;59.63;26.85;;;;;;;4.49;89.57;102622.16;5042190;28;20025;-69
2021/11/16 09:04:40;;;;;;;53.00;24.00;;;;;;;4.52;88.99;102619.63;5027253;28;20026;-70
2021/11/16 09:07:30;;;;;;;55.65;25.10;;;;;;;4.57;88.94;102618.84;5007006;28;20104;-69
2021/11/16 09:10:07;;;;;;;50.92;23.48;;;;;;;4.61;89.16;102626.72;5011993;28;20152;-69
2021/11/16 09:12:37;;;;;;;55.08;25.92;;;;;;;4.62;89.70;102625.88;5021997;28;20021;-70
2021/11/16 09:15:04;;;;;;;57.33;26.35;;;;;;;4.68;89.57;102625.16;5030325;28;20454;-70
2021/11/16 09:17:29;;;;;;;59.05;25.55;;;;;;;4.68;88.62;102617.34;5010185;28;20061;-70
2021/11/16 09:19:55;;;;;;;62.38;25.98;;;;;;;4.66;88.81;102619.94;5007039;28;20486;-69
2021/11/16 09:22:20;;;;;;;55.40;25.88;;;;;;;4.71;88.75;102624.34;5004717;28;20025;-69
2021/11/16 09:24:49;;;;;;;48.60;23.42;;;;;;;4.71;87.96;102629.53;5006250;28;20029;-69
2021/11/16 09:27:36;;;;;;;56.42;23.73;;;;;;;4.71;87.79;102629.53;5027041;28;20044;-68
2021/11/16 09:30:03;;;;;;;53.65;24.08;;;;;;;4.69;88.09;102622.56;5023829;28;20021;-69
2021/11/16 09:32:29;;;;;;;60.58;25.63;;;;;;;4.67;87.48;102624.25;5026961;28;20374;-68
2021/11/16 09:34:57;;;;;;;52.92;24.33;;;;;;;4.69;87.92;102625.19;5027339;28;20032;-69
2021/11/16 09:37:24;;;;;;;47.65;23.23;;;;;;;4.72;87.49;102619.16;5027175;28;20381;-70
2021/11/16 09:39:52;;;;;;;57.75;24.95;;;;;;;4.77;88.15;102620.13;5026994;28;20029;-69
2021/11/16 09:42:24;;;;;;;58.28;24.17;;;;;;;4.77;87.31;102616.66;5029695;28;20131;-69
2021/11/16 09:44:53;;;;;;;62.70;26.20;;;;;;;4.75;87.95;102623.53;5027049;28;20032;-70
2021/11/16 09:47:24;;;;;;;54.75;25.15;;;;;;;4.81;87.43;102614.16;5026128;28;20448;-68
2021/11/16 09:49:57;;;;;;;52.47;24.80;;;;;;;4.82;86.82;102610.69;5025329;28;20382;-69
2021/11/16 09:52:36;;;;;;;58.63;24.90;;;;;;;4.82;87.15;102608.09;5009357;28;20410;-69
2021/11/16 09:55:24;;;;;;;57.38;24.33;;;;;;;4.89;87.76;102600.41;5005814;28;20033;-70
2021/11/16 09:57:52;;;;;;;48.60;22.00;;;;;;;4.85;85.84;102607.28;5006106;28;20041;-70
2021/11/16 10:00:28;;;;;;;52.70;22.70;;;;;;;4.89;86.22;102603.91;5006932;28;20108;-70
2021/11/16 10:03:14;;;;;;;55.00;24.45;;;;;;;4.91;86.86;102615.22;5024820;28;20037;-69
2021/11/16 10:05:45;;;;;;;53.15;24.80;;;;;;;4.89;86.69;102608.19;5025490;28;20017;-69
2021/11/16 10:08:12;;;;;;;53.90;24.42;;;;;;;4.87;87.07;102602.97;5026684;28;20025;-70
2021/11/16 10:10:47;;;;;;;56.20;25.23;;;;;;;4.91;87.46;102601.31;5025775;28;20022;-68
2021/11/16 10:13:15;;;;;;;50.58;25.10;;;;;;;4.95;87.41;102596.22;5026378;28;20593;-69
2021/11/16 10:15:44;;;;;;;53.70;24.13;;;;;;;5.01;87.19;102595.44;5026845;28;20041;-69
2021/11/16 10:18:10;;;;;;;48.75;23.10;;;;;;;4.96;86.35;102592.78;5022276;28;20504;-67
2021/11/16 10:20:38;;;;;;;58.63;25.00;;;;;;;4.95;86.33;102587.50;5025741;28;20405;-66
2021/11/16 10:23:07;;;;;;;51.75;24.45;;;;;;;4.98;87.13;102591.06;5025934;28;20021;-70
2021/11/16 10:25:34;;;;;;;51.88;22.58;;;;;;;4.98;87.62;102579.78;5024302;28;20029;-69
2021/11/16 10:28:26;;;;;;;50.45;23.30;;;;;;;5.00;88.45;102584.16;5026494;28;20033;-68
2021/11/16 10:30:57;;;;;;;53.30;22.90;;;;;;;4.97;87.73;102583.22;5025357;28;20033;-68
2021/11/16 10:33:25;;;;;;;53.10;23.23;;;;;;;4.87;88.31;102582.19;5027210;28;20148;-67
2021/11/16 10:35:59;;;;;;;46.28;22.17;;;;;;;4.80;88.99;102585.50;5024703;28;20021;-67
2021/11/16 10:38:28;;;;;;;58.20;22.88;;;;;;;4.79;89.45;102582.03;5023257;28;20112;-68
2021/11/16 10:40:56;;;;;;;55.63;24.40;;;;;;;4.87;90.36;102576.97;5020653;28;20374;-69
2021/11/16 10:43:21;;;;;;;48.63;21.85;;;;;;;4.98;90.39;102579.78;5024350;28;20053;-68
2021/11/16 10:45:49;;;;;;;52.35;22.50;;;;;;;5.00;89.40;102578.97;5026334;28;20410;-69
2021/11/16 10:48:17;;;;;;;48.22;21.48;;;;;;;5.04;89.27;102584.25;5027019;28;20017;-69
2021/11/16 10:50:46;;;;;;;48.92;23.20;;;;;;;5.01;88.99;102575.53;5026776;28;20046;-67
2021/11/16 10:53:22;;;;;;;44.28;21.73;;;;;;;5.04;89.60;102579.91;5025934;28;20021;-70
2021/11/16 10:55:57;;;;;;;47.97;23.67;;;;;;;5.13;89.88;102572.25;5026733;28;20478;-69
2021/11/16 10:58:27;;;;;;;62.33;27.77;;;;;;;5.14;90.04;102567.94;5022909;28;20697;-68
2021/11/16 11:01:04;;;;;;;65.82;29.23;;;;;;;5.17;90.49;102549.75;5025041;28;20056;-67
2021/11/16 11:03:31;;;;;;;58.95;28.77;;;;;;;5.09;91.10;102551.38;5020271;28;20033;-68
2021/11/16 11:06:08;;;;;;;67.40;29.17;;;;;;;5.12;91.25;102547.09;5020879;28;20033;-68
2021/11/16 11:08:35;;;;;;;67.68;27.77;;;;;;;5.11;91.11;102545.34;5004701;28;20460;-68
2021/11/16 11:11:01;;;;;;;60.55;27.50;;;;;;;5.15;91.16;102538.47;5006732;28;20022;-68
2021/11/16 11:13:27;;;;;;;64.88;28.35;;;;;;;5.20;91.76;102538.53;5021942;28;20112;-71
2021/11/16 11:15:53;;;;;;;69.47;26.63;;;;;;;5.20;89.63;102528.13;5023982;28;20041;-69
2021/11/16 11:18:50;;;;;;;52.70;25.25;;;;;;;5.21;90.09;102529.88;5024289;28;20053;-70
2021/11/16 11:21:36;;;;;;;49.63;24.52;;;;;;;5.24;89.46;102527.34;5013830;28;20037;-69
2021/11/16 11:24:30;;;;;;;59.42;26.77;;;;;;;5.22;90.46;102524.72;5012556;28;20390;-69
2021/11/16 11:26:59;;;;;;;59.77;26.47;;;;;;;5.25;90.59;102513.50;5024665;28;20475;-69
2021/11/16 11:29:46;;;;;;;62.00;28.02;;;;;;;5.23;90.49;102508.25;5019184;28;20029;-69
2021/11/16 11:32:22;;;;;;;62.88;28.98;;;;;;;5.18;90.92;102515.09;5013734;28;20021;-69
2021/11/16 11:35:09;;;;;;;64.70;27.90;;;;;;;5.19;91.39;102503.84;5006775;28;20538;-70
2021/11/16 11:37:47;;;;;;;65.63;29.75;;;;;;;5.05;91.67;102498.44;5015307;28;20060;-69
2021/11/16 11:40:19;;;;;;;65.15;29.42;;;;;;;5.13;91.87;102496.81;5024030;28;20022;-69
2021/11/16 11:42:44;;;;;;;66.10;30.23;;;;;;;5.17;91.36;102489.94;5022807;28;20120;-69
2021/11/16 11:45:23;;;;;;;67.80;29.02;;;;;;;5.20;90.76;102494.31;5014335;28;20124;-69